sensor_id;sensor_type;location;lat;lon;timestamp;temperature;humidity
69204;DHT22;56317;27.658;85.326;2022-08-01T00:01:39;20.90;99.90
69204;DHT22;56317;27.658;85.326;2022-08-01T00:04:06;21.00;99.90
69204;DHT22;56317;27.658;85.326;2022-08-01T00:06:33;21.00;99.90
69204;DHT22;56317;27.658;85.326;2022-08-01T00:09:00;21.10;99.90
69204;DHT22;56317;27.658;85.326;2022-08-01T00:11:27;21.10;99.90
69204;DHT22;56317;27.658;85.326;2022-08-01T00:13:54;21.20;99.90
69204;DHT22;56317;27.658;85.326;2022-08-01T00:16:21;21.20;99.90
69204;DHT22;56317;27.658;85.326;2022-08-01T00:18:52;21.30;99.90
69204;DHT22;56317;27.658;85.326;2022-08-01T00:21:19;21.30;99.90
69204;DHT22;56317;27.658;85.326;2022-08-01T00:23:46;21.40;99.90
69204;DHT22;56317;27.658;85.326;2022-08-01T00:26:14;21.50;99.90
69204;DHT22;56317;27.658;85.326;2022-08-01T00:28:41;21.50;99.90
69204;DHT22;56317;27.658;85.326;2022-08-01T00:31:11;21.60;99.90
69204;DHT22;56317;27.658;85.326;2022-08-01T00:33:39;21.70;99.90
69204;DHT22;56317;27.658;85.326;2022-08-01T00:36:06;21.80;99.90
69204;DHT22;56317;27.658;85.326;2022-08-01T00:38:33;21.90;99.90
69204;DHT22;56317;27.658;85.326;2022-08-01T00:41:00;21.90;99.90
69204;DHT22;56317;27.658;85.326;2022-08-01T00:43:27;22.10;99.90
69204;DHT22;56317;27.658;85.326;2022-08-01T00:45:54;22.20;99.90
69204;DHT22;56317;27.658;85.326;2022-08-01T00:48:21;22.30;99.90
69204;DHT22;56317;27.658;85.326;2022-08-01T00:50:49;22.30;99.90
69204;DHT22;56317;27.658;85.326;2022-08-01T00:53:16;22.40;99.90
69204;DHT22;56317;27.658;85.326;2022-08-01T00:55:43;22.50;99.90
69204;DHT22;56317;27.658;85.326;2022-08-01T00:58:10;22.60;99.90
69204;DHT22;56317;27.658;85.326;2022-08-01T01:00:37;22.60;99.90
69204;DHT22;56317;27.658;85.326;2022-08-01T01:03:04;22.60;99.90
69204;DHT22;56317;27.658;85.326;2022-08-01T01:05:37;22.60;99.90
69204;DHT22;56317;27.658;85.326;2022-08-01T01:08:19;22.60;99.90
69204;DHT22;56317;27.658;85.326;2022-08-01T01:10:57;22.70;99.90
69204;DHT22;56317;27.658;85.326;2022-08-01T01:16:14;22.90;99.90
69204;DHT22;56317;27.658;85.326;2022-08-01T01:18:55;23.00;99.90
69204;DHT22;56317;27.658;85.326;2022-08-01T01:21:32;23.00;99.90
69204;DHT22;56317;27.658;85.326;2022-08-01T01:24:33;23.00;99.90
69204;DHT22;56317;27.658;85.326;2022-08-01T01:27:28;23.10;99.90
69204;DHT22;56317;27.658;85.326;2022-08-01T01:30:02;23.10;99.90
69204;DHT22;56317;27.658;85.326;2022-08-01T01:32:40;23.20;99.90
69204;DHT22;56317;27.658;85.326;2022-08-01T01:35:26;23.10;99.90
69204;DHT22;56317;27.658;85.326;2022-08-01T01:38:04;23.20;99.90
69204;DHT22;56317;27.658;85.326;2022-08-01T01:40:32;23.20;99.90
69204;DHT22;56317;27.658;85.326;2022-08-01T01:43:00;23.30;99.90
69204;DHT22;56317;27.658;85.326;2022-08-01T01:45:28;23.40;99.90
69204;DHT22;56317;27.658;85.326;2022-08-01T01:47:57;23.50;99.90
69204;DHT22;56317;27.658;85.326;2022-08-01T01:50:25;23.70;99.90
69204;DHT22;56317;27.658;85.326;2022-08-01T01:52:54;23.90;99.90
69204;DHT22;56317;27.658;85.326;2022-08-01T01:55:22;24.10;99.90
69204;DHT22;56317;27.658;85.326;2022-08-01T01:57:50;24.20;99.90
69204;DHT22;56317;27.658;85.326;2022-08-01T02:00:19;24.40;99.90
69204;DHT22;56317;27.658;85.326;2022-08-01T02:02:46;24.50;99.90
69204;DHT22;56317;27.658;85.326;2022-08-01T02:05:14;24.70;99.90
69204;DHT22;56317;27.658;85.326;2022-08-01T02:07:42;24.80;99.90
69204;DHT22;56317;27.658;85.326;2022-08-01T02:10:10;24.90;99.90
69204;DHT22;56317;27.658;85.326;2022-08-01T02:12:41;25.00;99.90
69204;DHT22;56317;27.658;85.326;2022-08-01T02:15:10;25.10;99.90
69204;DHT22;56317;27.658;85.326;2022-08-01T02:17:41;25.40;99.90
69204;DHT22;56317;27.658;85.326;2022-08-01T02:20:10;25.70;99.90
69204;DHT22;56317;27.658;85.326;2022-08-01T02:23:15;26.10;99.90
69204;DHT22;56317;27.658;85.326;2022-08-01T02:25:53;26.70;99.90
69204;DHT22;56317;27.658;85.326;2022-08-01T02:28:35;27.40;99.90
69204;DHT22;56317;27.658;85.326;2022-08-01T02:31:06;28.00;99.90
69204;DHT22;56317;27.658;85.326;2022-08-01T02:33:46;28.30;99.90
69204;DHT22;56317;27.658;85.326;2022-08-01T02:36:17;28.50;99.90
69204;DHT22;56317;27.658;85.326;2022-08-01T02:38:46;28.70;99.90
69204;DHT22;56317;27.658;85.326;2022-08-01T02:41:21;28.70;99.90
69204;DHT22;56317;27.658;85.326;2022-08-01T02:43:51;28.50;99.90
69204;DHT22;56317;27.658;85.326;2022-08-01T02:46:43;28.50;99.90
69204;DHT22;56317;27.658;85.326;2022-08-01T02:49:10;28.50;99.90
69204;DHT22;56317;27.658;85.326;2022-08-01T02:51:40;28.40;99.90
69204;DHT22;56317;27.658;85.326;2022-08-01T02:54:08;28.40;99.90
69204;DHT22;56317;27.658;85.326;2022-08-01T02:56:37;28.40;99.90
69204;DHT22;56317;27.658;85.326;2022-08-01T02:59:12;28.50;99.90
69204;DHT22;56317;27.658;85.326;2022-08-01T03:01:42;28.70;99.90
69204;DHT22;56317;27.658;85.326;2022-08-01T03:04:09;29.00;99.90
69204;DHT22;56317;27.658;85.326;2022-08-01T03:06:38;29.10;99.90
69204;DHT22;56317;27.658;85.326;2022-08-01T03:09:06;29.20;99.90
69204;DHT22;56317;27.658;85.326;2022-08-01T03:11:35;29.10;99.90
69204;DHT22;56317;27.658;85.326;2022-08-01T03:14:05;28.90;99.90
69204;DHT22;56317;27.658;85.326;2022-08-01T03:16:36;28.70;99.90
69204;DHT22;56317;27.658;85.326;2022-08-01T03:19:06;28.60;99.90
69204;DHT22;56317;27.658;85.326;2022-08-01T03:21:34;28.60;99.90
69204;DHT22;56317;27.658;85.326;2022-08-01T03:24:04;28.70;99.90
69204;DHT22;56317;27.658;85.326;2022-08-01T03:26:34;28.80;99.90
69204;DHT22;56317;27.658;85.326;2022-08-01T03:29:06;29.00;99.90
69204;DHT22;56317;27.658;85.326;2022-08-01T03:31:38;29.10;99.90
69204;DHT22;56317;27.658;85.326;2022-08-01T03:34:11;29.20;99.10
69204;DHT22;56317;27.658;85.326;2022-08-01T03:40:13;29.50;99.60
69204;DHT22;56317;27.658;85.326;2022-08-01T03:42:54;29.60;97.70
69204;DHT22;56317;27.658;85.326;2022-08-01T03:45:26;29.60;97.60
69204;DHT22;56317;27.658;85.326;2022-08-01T03:48:00;29.50;97.40
69204;DHT22;56317;27.658;85.326;2022-08-01T03:50:29;29.40;97.70
69204;DHT22;56317;27.658;85.326;2022-08-01T03:53:02;29.40;96.70
69204;DHT22;56317;27.658;85.326;2022-08-01T03:55:31;29.40;97.50
69204;DHT22;56317;27.658;85.326;2022-08-01T03:58:00;29.50;96.80
69204;DHT22;56317;27.658;85.326;2022-08-01T04:00:27;29.50;96.30
69204;DHT22;56317;27.658;85.326;2022-08-01T04:02:55;29.60;96.70
69204;DHT22;56317;27.658;85.326;2022-08-01T04:05:23;29.80;97.30
69204;DHT22;56317;27.658;85.326;2022-08-01T04:07:51;29.80;96.60
69204;DHT22;56317;27.658;85.326;2022-08-01T04:10:23;29.80;95.60
69204;DHT22;56317;27.658;85.326;2022-08-01T04:12:50;29.80;95.10
69204;DHT22;56317;27.658;85.326;2022-08-01T04:15:18;29.80;95.20
69204;DHT22;56317;27.658;85.326;2022-08-01T04:17:47;29.80;95.20
69204;DHT22;56317;27.658;85.326;2022-08-01T04:20:15;30.00;95.90
69204;DHT22;56317;27.658;85.326;2022-08-01T04:22:42;30.10;96.00
69204;DHT22;56317;27.658;85.326;2022-08-01T04:25:34;30.10;94.90
69204;DHT22;56317;27.658;85.326;2022-08-01T04:28:03;30.30;95.60
69204;DHT22;56317;27.658;85.326;2022-08-01T04:30:35;30.60;96.00
69204;DHT22;56317;27.658;85.326;2022-08-01T04:33:07;30.80;95.20
69204;DHT22;56317;27.658;85.326;2022-08-01T04:35:37;31.10;95.60
69204;DHT22;56317;27.658;85.326;2022-08-01T04:38:07;31.20;94.70
69204;DHT22;56317;27.658;85.326;2022-08-01T04:40:36;31.30;94.80
69204;DHT22;56317;27.658;85.326;2022-08-01T04:43:03;31.40;94.60
69204;DHT22;56317;27.658;85.326;2022-08-01T04:45:31;31.60;94.10
69204;DHT22;56317;27.658;85.326;2022-08-01T04:48:00;31.60;93.70
69204;DHT22;56317;27.658;85.326;2022-08-01T04:50:27;31.80;93.40
69204;DHT22;56317;27.658;85.326;2022-08-01T04:52:55;31.80;92.70
69204;DHT22;56317;27.658;85.326;2022-08-01T04:55:22;31.90;93.00
69204;DHT22;56317;27.658;85.326;2022-08-01T04:57:49;32.00;93.20
69204;DHT22;56317;27.658;85.326;2022-08-01T05:00:16;32.10;91.40
69204;DHT22;56317;27.658;85.326;2022-08-01T05:02:44;32.20;91.30
69204;DHT22;56317;27.658;85.326;2022-08-01T05:05:15;32.30;91.40
69204;DHT22;56317;27.658;85.326;2022-08-01T05:07:42;32.50;90.60
69204;DHT22;56317;27.658;85.326;2022-08-01T05:10:10;32.70;90.30
69204;DHT22;56317;27.658;85.326;2022-08-01T05:12:37;32.70;89.40
69204;DHT22;56317;27.658;85.326;2022-08-01T05:15:04;32.60;90.40
69204;DHT22;56317;27.658;85.326;2022-08-01T05:17:32;32.60;89.20
69204;DHT22;56317;27.658;85.326;2022-08-01T05:20:00;32.50;88.10
69204;DHT22;56317;27.658;85.326;2022-08-01T05:22:28;32.50;88.20
69204;DHT22;56317;27.658;85.326;2022-08-01T05:24:55;32.20;89.10
69204;DHT22;56317;27.658;85.326;2022-08-01T05:27:23;31.90;90.20
69204;DHT22;56317;27.658;85.326;2022-08-01T05:29:50;31.60;90.70
69204;DHT22;56317;27.658;85.326;2022-08-01T05:32:17;31.40;91.20
69204;DHT22;56317;27.658;85.326;2022-08-01T05:34:45;31.00;91.70
69204;DHT22;56317;27.658;85.326;2022-08-01T05:37:12;30.90;92.00
69204;DHT22;56317;27.658;85.326;2022-08-01T05:39:39;30.60;90.50
69204;DHT22;56317;27.658;85.326;2022-08-01T05:42:07;30.20;91.40
69204;DHT22;56317;27.658;85.326;2022-08-01T05:44:34;29.90;91.90
69204;DHT22;56317;27.658;85.326;2022-08-01T05:47:01;29.80;93.00
69204;DHT22;56317;27.658;85.326;2022-08-01T05:49:29;29.60;92.70
69204;DHT22;56317;27.658;85.326;2022-08-01T05:51:56;29.50;94.30
69204;DHT22;56317;27.658;85.326;2022-08-01T05:54:23;29.80;94.20
69204;DHT22;56317;27.658;85.326;2022-08-01T05:56:51;29.90;93.20
69204;DHT22;56317;27.658;85.326;2022-08-01T05:59:18;29.80;93.40
69204;DHT22;56317;27.658;85.326;2022-08-01T06:01:45;30.20;93.40
69204;DHT22;56317;27.658;85.326;2022-08-01T06:04:12;30.60;92.70
69204;DHT22;56317;27.658;85.326;2022-08-01T06:06:40;30.90;92.60
69204;DHT22;56317;27.658;85.326;2022-08-01T06:09:07;31.30;92.50
69204;DHT22;56317;27.658;85.326;2022-08-01T06:11:34;31.60;91.90
69204;DHT22;56317;27.658;85.326;2022-08-01T06:14:01;31.80;91.70
69204;DHT22;56317;27.658;85.326;2022-08-01T06:16:28;32.10;90.80
69204;DHT22;56317;27.658;85.326;2022-08-01T06:18:57;32.20;90.20
69204;DHT22;56317;27.658;85.326;2022-08-01T06:21:24;32.30;89.70
69204;DHT22;56317;27.658;85.326;2022-08-01T06:23:51;32.50;88.10
69204;DHT22;56317;27.658;85.326;2022-08-01T06:26:19;32.90;88.20
69204;DHT22;56317;27.658;85.326;2022-08-01T06:28:46;33.20;86.60
69204;DHT22;56317;27.658;85.326;2022-08-01T06:31:23;33.40;86.90
69204;DHT22;56317;27.658;85.326;2022-08-01T06:33:50;33.70;84.50
69204;DHT22;56317;27.658;85.326;2022-08-01T06:36:17;33.90;83.30
69204;DHT22;56317;27.658;85.326;2022-08-01T06:38:44;34.30;82.50
69204;DHT22;56317;27.658;85.326;2022-08-01T06:41:11;34.90;81.80
69204;DHT22;56317;27.658;85.326;2022-08-01T06:43:38;35.40;79.30
69204;DHT22;56317;27.658;85.326;2022-08-01T06:46:05;35.70;77.30
69204;DHT22;56317;27.658;85.326;2022-08-01T06:48:32;36.20;76.60
69204;DHT22;56317;27.658;85.326;2022-08-01T06:51:01;36.70;74.60
69204;DHT22;56317;27.658;85.326;2022-08-01T06:53:38;36.90;73.40
69204;DHT22;56317;27.658;85.326;2022-08-01T06:56:06;37.20;70.90
69204;DHT22;56317;27.658;85.326;2022-08-01T06:58:35;37.30;68.60
69204;DHT22;56317;27.658;85.326;2022-08-01T07:01:04;37.50;68.00
69204;DHT22;56317;27.658;85.326;2022-08-01T07:03:35;37.50;66.80
69204;DHT22;56317;27.658;85.326;2022-08-01T07:06:03;37.30;67.10
69204;DHT22;56317;27.658;85.326;2022-08-01T07:08:30;36.70;67.30
69204;DHT22;56317;27.658;85.326;2022-08-01T07:10:57;36.00;67.90
69204;DHT22;56317;27.658;85.326;2022-08-01T07:13:26;35.60;68.40
69204;DHT22;56317;27.658;85.326;2022-08-01T07:16:00;35.20;70.30
69204;DHT22;56317;27.658;85.326;2022-08-01T07:18:30;34.90;71.50
69204;DHT22;56317;27.658;85.326;2022-08-01T07:20:59;34.50;72.50
69204;DHT22;56317;27.658;85.326;2022-08-01T07:23:27;34.30;72.60
69204;DHT22;56317;27.658;85.326;2022-08-01T07:25:57;34.30;72.50
69204;DHT22;56317;27.658;85.326;2022-08-01T07:28:25;33.80;71.70
69204;DHT22;56317;27.658;85.326;2022-08-01T07:30:53;33.20;73.80
69204;DHT22;56317;27.658;85.326;2022-08-01T07:33:29;32.60;75.40
69204;DHT22;56317;27.658;85.326;2022-08-01T07:35:57;32.40;76.30
69204;DHT22;56317;27.658;85.326;2022-08-01T07:38:27;32.10;77.20
69204;DHT22;56317;27.658;85.326;2022-08-01T07:40:54;31.70;77.70
69204;DHT22;56317;27.658;85.326;2022-08-01T07:43:21;31.40;80.50
69204;DHT22;56317;27.658;85.326;2022-08-01T07:45:48;31.00;83.20
69204;DHT22;56317;27.658;85.326;2022-08-01T07:48:16;30.40;83.20
69204;DHT22;56317;27.658;85.326;2022-08-01T07:50:45;30.00;87.70
69204;DHT22;56317;27.658;85.326;2022-08-01T07:53:12;29.70;90.10
69204;DHT22;56317;27.658;85.326;2022-08-01T07:55:39;29.50;90.20
69204;DHT22;56317;27.658;85.326;2022-08-01T07:58:06;29.30;90.40
69204;DHT22;56317;27.658;85.326;2022-08-01T08:00:34;29.00;90.80
69204;DHT22;56317;27.658;85.326;2022-08-01T08:03:01;28.90;91.40
69204;DHT22;56317;27.658;85.326;2022-08-01T08:05:49;28.70;92.30
69204;DHT22;56317;27.658;85.326;2022-08-01T08:08:15;28.50;92.70
69204;DHT22;56317;27.658;85.326;2022-08-01T08:10:44;28.40;94.00
69204;DHT22;56317;27.658;85.326;2022-08-01T08:13:12;28.20;94.00
69204;DHT22;56317;27.658;85.326;2022-08-01T08:15:39;27.90;94.60
69204;DHT22;56317;27.658;85.326;2022-08-01T08:18:06;27.70;95.60
69204;DHT22;56317;27.658;85.326;2022-08-01T08:20:33;27.60;95.60
69204;DHT22;56317;27.658;85.326;2022-08-01T08:23:01;27.50;95.60
69204;DHT22;56317;27.658;85.326;2022-08-01T08:25:48;27.30;96.00
69204;DHT22;56317;27.658;85.326;2022-08-01T08:28:15;27.10;96.90
69204;DHT22;56317;27.658;85.326;2022-08-01T08:30:42;26.80;97.70
69204;DHT22;56317;27.658;85.326;2022-08-01T08:33:09;26.50;98.60
69204;DHT22;56317;27.658;85.326;2022-08-01T08:35:43;26.40;99.20
69204;DHT22;56317;27.658;85.326;2022-08-01T08:38:10;26.20;99.60
69204;DHT22;56317;27.658;85.326;2022-08-01T08:40:37;26.20;99.90
69204;DHT22;56317;27.658;85.326;2022-08-01T08:43:05;26.30;99.90
69204;DHT22;56317;27.658;85.326;2022-08-01T08:45:33;26.50;99.90
69204;DHT22;56317;27.658;85.326;2022-08-01T08:48:01;26.50;99.90
69204;DHT22;56317;27.658;85.326;2022-08-01T08:50:28;26.40;99.90
69204;DHT22;56317;27.658;85.326;2022-08-01T08:52:56;26.40;99.90
69204;DHT22;56317;27.658;85.326;2022-08-01T08:55:26;26.30;99.90
69204;DHT22;56317;27.658;85.326;2022-08-01T08:57:55;26.30;99.90
69204;DHT22;56317;27.658;85.326;2022-08-01T09:00:23;26.20;99.90
69204;DHT22;56317;27.658;85.326;2022-08-01T09:02:51;26.10;99.90
69204;DHT22;56317;27.658;85.326;2022-08-01T09:05:23;25.70;99.90
69204;DHT22;56317;27.658;85.326;2022-08-01T09:07:53;25.30;99.90
69204;DHT22;56317;27.658;85.326;2022-08-01T09:10:21;24.90;99.90
69204;DHT22;56317;27.658;85.326;2022-08-01T09:15:42;24.50;99.90
69204;DHT22;56317;27.658;85.326;2022-08-01T09:18:39;24.30;99.90
69204;DHT22;56317;27.658;85.326;2022-08-01T09:21:17;23.90;99.90
69204;DHT22;56317;27.658;85.326;2022-08-01T09:23:47;23.70;99.90
69204;DHT22;56317;27.658;85.326;2022-08-01T09:26:16;23.50;99.90
69204;DHT22;56317;27.658;85.326;2022-08-01T09:28:44;23.50;99.90
69204;DHT22;56317;27.658;85.326;2022-08-01T09:31:14;23.50;99.90
69204;DHT22;56317;27.658;85.326;2022-08-01T09:34:15;23.60;99.90
69204;DHT22;56317;27.658;85.326;2022-08-01T09:36:59;23.60;99.90
69204;DHT22;56317;27.658;85.326;2022-08-01T09:39:35;23.60;99.90
69204;DHT22;56317;27.658;85.326;2022-08-01T09:42:21;23.80;99.90
69204;DHT22;56317;27.658;85.326;2022-08-01T09:44:49;23.90;99.90
69204;DHT22;56317;27.658;85.326;2022-08-01T09:47:17;24.10;99.90
69204;DHT22;56317;27.658;85.326;2022-08-01T09:49:54;24.30;99.90
69204;DHT22;56317;27.658;85.326;2022-08-01T09:52:23;24.60;99.90
69204;DHT22;56317;27.658;85.326;2022-08-01T09:54:55;25.00;99.90
69204;DHT22;56317;27.658;85.326;2022-08-01T09:57:23;25.40;99.90
69204;DHT22;56317;27.658;85.326;2022-08-01T09:59:53;25.80;99.90
69204;DHT22;56317;27.658;85.326;2022-08-01T10:02:33;26.20;99.90
69204;DHT22;56317;27.658;85.326;2022-08-01T10:05:09;26.50;99.90
69204;DHT22;56317;27.658;85.326;2022-08-01T10:07:56;26.60;99.90
69204;DHT22;56317;27.658;85.326;2022-08-01T10:10:23;26.80;99.90
69204;DHT22;56317;27.658;85.326;2022-08-01T10:12:51;26.70;99.90
69204;DHT22;56317;27.658;85.326;2022-08-01T10:15:20;26.70;99.90
69204;DHT22;56317;27.658;85.326;2022-08-01T10:17:54;26.80;99.90
69204;DHT22;56317;27.658;85.326;2022-08-01T10:20:27;26.90;99.90
69204;DHT22;56317;27.658;85.326;2022-08-01T10:22:55;26.90;99.90
69204;DHT22;56317;27.658;85.326;2022-08-01T10:25:23;26.90;99.90
69204;DHT22;56317;27.658;85.326;2022-08-01T10:27:53;26.80;99.90
69204;DHT22;56317;27.658;85.326;2022-08-01T10:30:26;26.60;99.90
69204;DHT22;56317;27.658;85.326;2022-08-01T10:32:55;26.40;99.90
69204;DHT22;56317;27.658;85.326;2022-08-01T10:35:22;26.20;99.90
69204;DHT22;56317;27.658;85.326;2022-08-01T10:37:50;26.00;99.90
69204;DHT22;56317;27.658;85.326;2022-08-01T10:40:22;25.90;99.90
69204;DHT22;56317;27.658;85.326;2022-08-01T10:42:50;25.70;99.90
69204;DHT22;56317;27.658;85.326;2022-08-01T10:45:18;25.40;99.90
69204;DHT22;56317;27.658;85.326;2022-08-01T10:50:38;25.10;99.90
69204;DHT22;56317;27.658;85.326;2022-08-01T10:53:23;25.00;99.90
69204;DHT22;56317;27.658;85.326;2022-08-01T10:58:30;25.30;99.90
69204;DHT22;56317;27.658;85.326;2022-08-01T11:04:09;26.80;99.90
69204;DHT22;56317;27.658;85.326;2022-08-01T11:06:41;27.60;99.90
69204;DHT22;56317;27.658;85.326;2022-08-01T11:12:00;29.00;99.90
69204;DHT22;56317;27.658;85.326;2022-08-01T11:14:30;29.90;99.90
69204;DHT22;56317;27.658;85.326;2022-08-01T11:20:25;31.50;96.30
69204;DHT22;56317;27.658;85.326;2022-08-01T11:30:53;31.00;92.90
69204;DHT22;56317;27.658;85.326;2022-08-01T11:38:46;29.20;95.10
69204;DHT22;56317;27.658;85.326;2022-08-01T11:43:59;28.40;95.60
69204;DHT22;56317;27.658;85.326;2022-08-01T11:46:46;28.00;96.70
69204;DHT22;56317;27.658;85.326;2022-08-01T11:52:10;27.10;98.30
69204;DHT22;56317;27.658;85.326;2022-08-01T11:54:42;26.70;99.00
69204;DHT22;56317;27.658;85.326;2022-08-01T11:57:21;26.40;98.90
69204;DHT22;56317;27.658;85.326;2022-08-01T11:59:51;26.20;99.80
69204;DHT22;56317;27.658;85.326;2022-08-01T12:02:31;26.00;99.90
69204;DHT22;56317;27.658;85.326;2022-08-01T12:05:02;25.90;99.90
69204;DHT22;56317;27.658;85.326;2022-08-01T12:07:30;25.80;99.90
69204;DHT22;56317;27.658;85.326;2022-08-01T12:10:15;25.70;99.90
69204;DHT22;56317;27.658;85.326;2022-08-01T12:12:49;25.50;99.90
69204;DHT22;56317;27.658;85.326;2022-08-01T12:15:18;25.40;99.90
69204;DHT22;56317;27.658;85.326;2022-08-01T12:17:50;25.30;99.90
69204;DHT22;56317;27.658;85.326;2022-08-01T12:20:22;25.20;99.90
69204;DHT22;56317;27.658;85.326;2022-08-01T12:22:57;25.10;99.90
69204;DHT22;56317;27.658;85.326;2022-08-01T12:25:25;25.00;99.90
69204;DHT22;56317;27.658;85.326;2022-08-01T12:27:52;24.80;99.90
69204;DHT22;56317;27.658;85.326;2022-08-01T12:30:21;24.70;99.90
69204;DHT22;56317;27.658;85.326;2022-08-01T12:32:53;24.70;99.90
69204;DHT22;56317;27.658;85.326;2022-08-01T12:35:23;24.60;99.90
69204;DHT22;56317;27.658;85.326;2022-08-01T12:37:52;24.50;99.90
69204;DHT22;56317;27.658;85.326;2022-08-01T12:40:29;24.40;99.90
69204;DHT22;56317;27.658;85.326;2022-08-01T12:43:00;24.20;99.90
69204;DHT22;56317;27.658;85.326;2022-08-01T12:48:01;24.00;99.90
69204;DHT22;56317;27.658;85.326;2022-08-01T12:50:32;23.80;99.90
69204;DHT22;56317;27.658;85.326;2022-08-01T12:53:07;23.70;99.90
69204;DHT22;56317;27.658;85.326;2022-08-01T12:55:51;23.70;99.90
69204;DHT22;56317;27.658;85.326;2022-08-01T12:58:19;23.60;99.90
69204;DHT22;56317;27.658;85.326;2022-08-01T13:00:51;23.40;99.90
69204;DHT22;56317;27.658;85.326;2022-08-01T13:03:29;23.40;99.90
69204;DHT22;56317;27.658;85.326;2022-08-01T13:05:58;23.30;99.90
69204;DHT22;56317;27.658;85.326;2022-08-01T13:08:33;23.20;99.90
69204;DHT22;56317;27.658;85.326;2022-08-01T13:16:10;22.90;99.90
69204;DHT22;56317;27.658;85.326;2022-08-01T13:18:37;22.90;99.90
69204;DHT22;56317;27.658;85.326;2022-08-01T13:21:16;22.80;99.90
69204;DHT22;56317;27.658;85.326;2022-08-01T13:24:04;22.70;99.90
69204;DHT22;56317;27.658;85.326;2022-08-01T13:26:40;22.70;99.90
69204;DHT22;56317;27.658;85.326;2022-08-01T13:29:08;22.70;99.90
69204;DHT22;56317;27.658;85.326;2022-08-01T13:31:36;22.60;99.90
69204;DHT22;56317;27.658;85.326;2022-08-01T13:34:04;22.60;99.90
69204;DHT22;56317;27.658;85.326;2022-08-01T13:36:31;22.60;99.90
69204;DHT22;56317;27.658;85.326;2022-08-01T13:38:59;22.60;99.90
69204;DHT22;56317;27.658;85.326;2022-08-01T13:41:46;22.60;99.90
69204;DHT22;56317;27.658;85.326;2022-08-01T13:44:13;22.50;99.90
69204;DHT22;56317;27.658;85.326;2022-08-01T13:46:42;22.50;99.90
69204;DHT22;56317;27.658;85.326;2022-08-01T13:49:10;22.50;99.90
69204;DHT22;56317;27.658;85.326;2022-08-01T13:51:39;22.50;99.90
69204;DHT22;56317;27.658;85.326;2022-08-01T13:54:06;22.50;99.90
69204;DHT22;56317;27.658;85.326;2022-08-01T13:56:34;22.40;99.90
69204;DHT22;56317;27.658;85.326;2022-08-01T13:59:02;22.40;99.90
69204;DHT22;56317;27.658;85.326;2022-08-01T14:01:29;22.40;99.90
69204;DHT22;56317;27.658;85.326;2022-08-01T14:03:56;22.40;99.90
69204;DHT22;56317;27.658;85.326;2022-08-01T14:06:23;22.40;99.90
69204;DHT22;56317;27.658;85.326;2022-08-01T14:08:50;22.30;99.90
69204;DHT22;56317;27.658;85.326;2022-08-01T14:11:17;22.30;99.90
69204;DHT22;56317;27.658;85.326;2022-08-01T14:13:45;22.30;99.90
69204;DHT22;56317;27.658;85.326;2022-08-01T14:16:12;22.30;99.90
69204;DHT22;56317;27.658;85.326;2022-08-01T14:18:39;22.30;99.90
69204;DHT22;56317;27.658;85.326;2022-08-01T14:21:09;22.30;99.90
69204;DHT22;56317;27.658;85.326;2022-08-01T14:23:37;22.30;99.90
69204;DHT22;56317;27.658;85.326;2022-08-01T14:26:04;22.30;99.90
69204;DHT22;56317;27.658;85.326;2022-08-01T14:28:31;22.30;99.90
69204;DHT22;56317;27.658;85.326;2022-08-01T14:30:59;22.30;99.90
69204;DHT22;56317;27.658;85.326;2022-08-01T14:33:27;22.30;99.90
69204;DHT22;56317;27.658;85.326;2022-08-01T14:35:55;22.30;99.90
69204;DHT22;56317;27.658;85.326;2022-08-01T14:38:22;22.30;99.90
69204;DHT22;56317;27.658;85.326;2022-08-01T14:40:50;22.30;99.90
69204;DHT22;56317;27.658;85.326;2022-08-01T14:43:18;22.30;99.90
69204;DHT22;56317;27.658;85.326;2022-08-01T14:45:45;22.30;99.90
69204;DHT22;56317;27.658;85.326;2022-08-01T14:48:17;22.20;99.90
69204;DHT22;56317;27.658;85.326;2022-08-01T14:50:45;22.20;99.90
69204;DHT22;56317;27.658;85.326;2022-08-01T14:53:12;22.20;99.90
69204;DHT22;56317;27.658;85.326;2022-08-01T14:55:39;22.20;99.90
69204;DHT22;56317;27.658;85.326;2022-08-01T14:58:06;22.20;99.90
69204;DHT22;56317;27.658;85.326;2022-08-01T15:00:33;22.20;99.90
69204;DHT22;56317;27.658;85.326;2022-08-01T15:03:01;22.20;99.90
69204;DHT22;56317;27.658;85.326;2022-08-01T15:05:28;22.20;99.90
69204;DHT22;56317;27.658;85.326;2022-08-01T15:07:56;22.20;99.90
69204;DHT22;56317;27.658;85.326;2022-08-01T15:10:23;22.10;99.90
69204;DHT22;56317;27.658;85.326;2022-08-01T15:12:51;22.10;99.90
69204;DHT22;56317;27.658;85.326;2022-08-01T15:15:21;22.10;99.90
69204;DHT22;56317;27.658;85.326;2022-08-01T15:17:51;22.10;99.90
69204;DHT22;56317;27.658;85.326;2022-08-01T15:20:25;22.10;99.90
69204;DHT22;56317;27.658;85.326;2022-08-01T15:22:59;22.10;99.90
69204;DHT22;56317;27.658;85.326;2022-08-01T15:25:26;22.10;99.90
69204;DHT22;56317;27.658;85.326;2022-08-01T15:27:58;22.10;99.90
69204;DHT22;56317;27.658;85.326;2022-08-01T15:30:25;22.10;99.90
69204;DHT22;56317;27.658;85.326;2022-08-01T15:32:52;22.10;99.90
69204;DHT22;56317;27.658;85.326;2022-08-01T15:35:19;22.10;99.90
69204;DHT22;56317;27.658;85.326;2022-08-01T15:37:47;22.10;99.90
69204;DHT22;56317;27.658;85.326;2022-08-01T15:40:14;22.10;99.90
69204;DHT22;56317;27.658;85.326;2022-08-01T15:42:41;22.00;99.90
69204;DHT22;56317;27.658;85.326;2022-08-01T15:45:08;22.00;99.90
69204;DHT22;56317;27.658;85.326;2022-08-01T15:47:35;22.00;99.90
69204;DHT22;56317;27.658;85.326;2022-08-01T15:50:03;21.90;99.90
69204;DHT22;56317;27.658;85.326;2022-08-01T15:52:33;22.00;99.90
69204;DHT22;56317;27.658;85.326;2022-08-01T15:55:00;22.00;99.90
69204;DHT22;56317;27.658;85.326;2022-08-01T15:57:28;22.00;99.90
69204;DHT22;56317;27.658;85.326;2022-08-01T15:59:55;22.00;99.90
69204;DHT22;56317;27.658;85.326;2022-08-01T16:02:22;21.90;99.90
69204;DHT22;56317;27.658;85.326;2022-08-01T16:04:49;22.00;99.90
69204;DHT22;56317;27.658;85.326;2022-08-01T16:07:16;22.00;99.90
69204;DHT22;56317;27.658;85.326;2022-08-01T16:09:43;22.00;99.90
69204;DHT22;56317;27.658;85.326;2022-08-01T16:12:10;22.00;99.90
69204;DHT22;56317;27.658;85.326;2022-08-01T16:14:37;21.90;99.90
69204;DHT22;56317;27.658;85.326;2022-08-01T16:17:04;21.90;99.90
69204;DHT22;56317;27.658;85.326;2022-08-01T16:19:32;21.80;99.90
69204;DHT22;56317;27.658;85.326;2022-08-01T16:22:08;21.80;99.90
69204;DHT22;56317;27.658;85.326;2022-08-01T16:24:38;21.80;99.90